createdAt,value
2018-11-06T00:01:27.585Z,19.60
2018-11-06T00:04:02.407Z,19.60
2018-11-06T00:06:31.481Z,19.60
2018-11-06T00:09:00.186Z,19.60
2018-11-06T00:11:28.885Z,19.60
2018-11-06T00:13:57.581Z,19.50
2018-11-06T00:16:26.284Z,19.60
2018-11-06T00:18:54.976Z,19.60
2018-11-06T00:21:23.676Z,19.60
2018-11-06T00:23:52.438Z,19.60
2018-11-06T00:26:21.136Z,19.60
2018-11-06T00:28:49.831Z,19.60
2018-11-06T00:31:18.536Z,19.60
2018-11-06T00:33:47.218Z,19.60
2018-11-06T00:36:15.924Z,19.60
2018-11-06T00:38:44.611Z,19.60
2018-11-06T00:41:13.313Z,19.50
2018-11-06T00:43:42.007Z,19.50
2018-11-06T00:46:10.736Z,19.50
2018-11-06T00:48:39.421Z,19.50
2018-11-06T00:51:08.122Z,19.50
2018-11-06T00:53:36.852Z,19.50
2018-11-06T00:56:05.541Z,19.50
2018-11-06T00:58:34.244Z,19.50
2018-11-06T01:01:02.933Z,19.50
2018-11-06T01:03:36.903Z,19.50
2018-11-06T01:06:05.607Z,19.50
2018-11-06T01:08:34.308Z,19.60
2018-11-06T01:11:03.283Z,19.60
2018-11-06T01:13:31.976Z,19.60
2018-11-06T01:16:00.695Z,19.60
2018-11-06T01:18:29.425Z,19.60
2018-11-06T01:20:58.171Z,19.60
2018-11-06T01:23:26.880Z,19.60
2018-11-06T01:25:55.576Z,19.60
2018-11-06T01:28:24.267Z,19.60
2018-11-06T01:30:52.976Z,19.60
2018-11-06T01:33:21.674Z,19.60
2018-11-06T01:35:50.372Z,19.60
2018-11-06T01:38:19.256Z,19.60
2018-11-06T01:40:47.969Z,19.60
2018-11-06T01:43:16.668Z,19.60
2018-11-06T01:45:45.400Z,19.60
2018-11-06T01:48:14.083Z,19.60
2018-11-06T01:50:42.780Z,19.60
2018-11-06T01:53:11.765Z,19.60
2018-11-06T01:55:40.480Z,19.60
2018-11-06T01:58:09.173Z,19.60
2018-11-06T02:00:37.872Z,19.60
2018-11-06T02:03:06.580Z,19.60
2018-11-06T02:05:35.272Z,19.60
2018-11-06T02:08:03.976Z,19.60
2018-11-06T02:10:32.663Z,19.60
2018-11-06T02:13:01.380Z,19.60
2018-11-06T02:15:30.076Z,19.60
2018-11-06T02:17:58.772Z,19.60
2018-11-06T02:20:27.532Z,19.60
2018-11-06T02:22:56.228Z,19.60
2018-11-06T02:25:24.924Z,19.60
2018-11-06T02:27:53.636Z,19.60
2018-11-06T02:30:22.333Z,19.60
2018-11-06T02:32:51.033Z,19.60
2018-11-06T02:35:19.728Z,19.60
2018-11-06T02:37:48.416Z,19.60
2018-11-06T02:40:17.120Z,19.60
2018-11-06T02:42:45.822Z,19.60
2018-11-06T02:45:14.728Z,19.60
2018-11-06T02:47:43.811Z,19.60
2018-11-06T02:50:13.324Z,19.60
2018-11-06T02:52:42.616Z,19.60
2018-11-06T02:55:11.617Z,19.60
2018-11-06T02:57:40.807Z,19.60
2018-11-06T03:00:12.065Z,19.60
2018-11-06T03:02:40.812Z,19.60
2018-11-06T03:05:10.152Z,19.60
2018-11-06T03:07:39.039Z,19.60
2018-11-06T03:10:08.827Z,19.60
2018-11-06T03:12:37.646Z,19.60
2018-11-06T03:15:06.915Z,19.60
2018-11-06T03:17:35.728Z,19.60
2018-11-06T03:20:04.584Z,19.50
2018-11-06T03:22:33.292Z,19.60
2018-11-06T03:25:02.021Z,19.60
2018-11-06T03:27:30.736Z,19.60
2018-11-06T03:29:59.448Z,19.60
2018-11-06T03:32:28.169Z,19.60
2018-11-06T03:34:57.044Z,19.60
2018-11-06T03:37:25.764Z,19.60
2018-11-06T03:39:54.472Z,19.60
2018-11-06T03:42:23.308Z,19.60
2018-11-06T03:44:52.027Z,19.50
2018-11-06T03:47:20.748Z,19.50
2018-11-06T03:49:49.464Z,19.50
2018-11-06T03:52:18.188Z,19.50
2018-11-06T03:54:46.897Z,19.50
2018-11-06T03:57:15.615Z,19.50
2018-11-06T03:59:44.324Z,19.50
2018-11-06T04:02:13.044Z,19.50
2018-11-06T04:04:41.812Z,19.50
2018-11-06T04:07:10.536Z,19.50
2018-11-06T04:09:39.236Z,19.50
2018-11-06T04:12:07.948Z,19.50
2018-11-06T04:14:36.653Z,19.50
2018-11-06T04:17:05.397Z,19.50
2018-11-06T04:19:34.128Z,19.50
2018-11-06T04:22:02.857Z,19.50
2018-11-06T04:24:31.608Z,19.50
2018-11-06T04:27:00.341Z,19.50
2018-11-06T04:29:29.088Z,19.50
2018-11-06T04:31:57.824Z,19.50
2018-11-06T04:34:26.563Z,19.50
2018-11-06T04:36:55.296Z,19.50
2018-11-06T04:39:24.029Z,19.50
2018-11-06T04:41:52.757Z,19.50
2018-11-06T04:44:21.492Z,19.50
2018-11-06T04:46:50.221Z,19.50
2018-11-06T04:49:18.972Z,19.50
2018-11-06T04:51:47.695Z,19.50
2018-11-06T04:54:16.424Z,19.50
2018-11-06T04:56:45.160Z,19.50
2018-11-06T04:59:13.893Z,19.50
2018-11-06T05:01:42.619Z,19.50
2018-11-06T05:04:11.360Z,19.50
2018-11-06T05:06:40.121Z,19.50
2018-11-06T05:09:09.394Z,19.50
2018-11-06T05:11:38.130Z,19.50
2018-11-06T05:14:07.236Z,19.50
2018-11-06T05:16:35.942Z,19.50
2018-11-06T05:19:04.719Z,19.50
2018-11-06T05:21:33.454Z,19.50
2018-11-06T05:24:02.183Z,19.50
2018-11-06T05:26:30.912Z,19.40
2018-11-06T05:28:59.656Z,19.40
2018-11-06T05:31:28.409Z,19.40
2018-11-06T05:33:57.136Z,19.40
2018-11-06T05:36:25.865Z,19.50
2018-11-06T05:38:54.680Z,19.50
2018-11-06T05:41:23.352Z,19.50
2018-11-06T05:43:52.088Z,19.50
2018-11-06T05:46:20.828Z,19.50
2018-11-06T05:48:49.573Z,19.50
2018-11-06T05:51:18.291Z,19.50
2018-11-06T05:53:47.025Z,19.50
2018-11-06T05:56:15.756Z,19.50
2018-11-06T05:58:44.488Z,19.50
2018-11-06T06:01:13.221Z,19.50
2018-11-06T06:03:41.959Z,19.40
2018-11-06T06:06:10.688Z,19.40
2018-11-06T06:08:39.484Z,19.30
2018-11-06T06:11:08.262Z,19.30
2018-11-06T06:13:36.973Z,19.20
2018-11-06T06:16:05.868Z,19.20
2018-11-06T06:18:34.641Z,19.20
2018-11-06T06:21:03.380Z,19.30
2018-11-06T06:23:32.423Z,19.30
2018-11-06T06:26:01.168Z,19.30
2018-11-06T06:28:30.026Z,19.30
2018-11-06T06:30:58.658Z,19.30
2018-11-06T06:33:27.385Z,19.30
2018-11-06T06:35:56.132Z,19.30
2018-11-06T06:38:24.857Z,19.30
2018-11-06T06:40:53.629Z,19.30
2018-11-06T06:43:22.912Z,19.30
2018-11-06T06:45:51.645Z,19.30
2018-11-06T06:48:20.373Z,19.30
2018-11-06T06:50:49.112Z,19.30
2018-11-06T06:53:17.849Z,19.30
2018-11-06T06:55:46.588Z,19.30
2018-11-06T06:58:15.693Z,19.30
2018-11-06T07:00:44.465Z,19.30
2018-11-06T07:03:13.204Z,19.30
2018-11-06T07:05:41.947Z,19.40
2018-11-06T07:08:10.673Z,19.40
2018-11-06T07:10:39.423Z,19.40
2018-11-06T07:13:08.252Z,19.40
2018-11-06T07:15:36.903Z,19.40
2018-11-06T07:18:05.696Z,19.40
2018-11-06T07:20:34.489Z,19.40
2018-11-06T07:23:03.216Z,19.40
2018-11-06T07:25:31.981Z,19.40
2018-11-06T07:28:00.717Z,19.40
2018-11-06T07:30:29.441Z,19.40
2018-11-06T07:32:58.180Z,19.40
2018-11-06T07:35:27.039Z,19.40
2018-11-06T07:37:55.651Z,19.40
2018-11-06T07:40:24.412Z,19.40
2018-11-06T07:42:53.128Z,19.40
2018-11-06T07:45:22.256Z,19.40
2018-11-06T07:47:50.997Z,19.50
2018-11-06T07:50:19.803Z,19.50
2018-11-06T07:52:48.479Z,19.50
2018-11-06T07:55:18.444Z,19.50
2018-11-06T07:57:47.335Z,19.50
2018-11-06T08:00:18.919Z,19.50
2018-11-06T08:02:48.394Z,19.50
2018-11-06T08:05:17.584Z,19.50
2018-11-06T08:07:47.107Z,19.60
2018-11-06T08:10:15.840Z,19.50
2018-11-06T08:12:46.217Z,19.60
2018-11-06T08:15:15.249Z,19.60
2018-11-06T08:17:44.659Z,19.70
2018-11-06T08:20:13.593Z,19.70
2018-11-06T08:22:42.333Z,19.70
2018-11-06T08:25:12.308Z,19.80
2018-11-06T08:27:41.825Z,19.90
2018-11-06T08:30:11.016Z,20.00
2018-11-06T08:32:40.208Z,20.10
2018-11-06T08:35:11.864Z,20.10
2018-11-06T08:37:40.851Z,20.20
2018-11-06T08:40:10.872Z,20.20
2018-11-06T08:42:39.609Z,20.30
2018-11-06T08:45:09.712Z,20.40
2018-11-06T08:47:38.772Z,20.60
2018-11-06T08:50:08.694Z,20.60
2018-11-06T08:52:37.441Z,20.70
2018-11-06T08:55:07.565Z,21.00
2018-11-06T08:57:36.302Z,21.10
2018-11-06T09:00:07.793Z,21.50
2018-11-06T09:02:36.577Z,22.30
2018-11-06T09:05:06.799Z,23.10
2018-11-06T09:07:36.068Z,23.60
2018-11-06T09:10:05.096Z,24.00
2018-11-06T09:12:33.819Z,24.10
2018-11-06T09:15:02.593Z,24.10
2018-11-06T09:17:31.316Z,24.00
2018-11-06T09:20:00.069Z,24.10
2018-11-06T09:22:28.833Z,24.30
2018-11-06T09:24:57.561Z,24.30
2018-11-06T09:27:26.990Z,24.30
2018-11-06T09:29:55.680Z,24.20
2018-11-06T09:32:24.414Z,24.30
2018-11-06T09:34:53.140Z,24.30
2018-11-06T09:37:21.888Z,24.30
2018-11-06T09:39:50.634Z,24.10
2018-11-06T09:42:19.374Z,23.90
2018-11-06T09:44:48.129Z,23.60
2018-11-06T09:47:16.848Z,23.60
2018-11-06T09:49:45.576Z,23.40
2018-11-06T09:52:14.320Z,23.30
2018-11-06T09:54:43.059Z,23.20
2018-11-06T09:57:11.784Z,23.10
2018-11-06T09:59:40.508Z,23.10
2018-11-06T10:02:09.249Z,23.00
2018-11-06T10:04:37.984Z,23.20
2018-11-06T10:07:07.099Z,23.30
2018-11-06T10:09:35.548Z,23.50
2018-11-06T10:12:04.404Z,23.60
2018-11-06T10:14:33.132Z,23.50
2018-11-06T10:17:01.864Z,23.50
2018-11-06T10:19:31.016Z,23.40
2018-11-06T10:21:59.757Z,23.30
2018-11-06T10:24:28.486Z,23.20
2018-11-06T10:26:57.260Z,23.10
2018-11-06T10:29:25.990Z,22.90
2018-11-06T10:31:54.733Z,22.80
2018-11-06T10:34:23.460Z,22.70
2018-11-06T10:36:52.195Z,22.70
2018-11-06T10:39:21.012Z,22.70
2018-11-06T10:41:49.741Z,22.60
2018-11-06T10:44:18.476Z,22.60
2018-11-06T10:46:47.205Z,22.50
2018-11-06T10:49:15.940Z,22.50
2018-11-06T10:51:44.707Z,22.40
2018-11-06T10:54:13.404Z,22.20
2018-11-06T10:56:42.132Z,22.20
2018-11-06T10:59:10.870Z,22.10
2018-11-06T11:01:45.161Z,22.10
2018-11-06T11:04:15.121Z,22.20
2018-11-06T11:06:43.954Z,22.30
2018-11-06T11:09:12.693Z,22.40
2018-11-06T11:11:41.433Z,22.60
2018-11-06T11:14:10.171Z,22.70
2018-11-06T11:16:38.952Z,22.80
2018-11-06T11:19:07.685Z,22.90
2018-11-06T11:21:36.419Z,22.80
2018-11-06T11:24:05.413Z,22.90
2018-11-06T11:26:34.149Z,22.70
2018-11-06T11:29:02.889Z,22.70
2018-11-06T11:31:31.620Z,22.60
2018-11-06T11:34:00.363Z,22.60
2018-11-06T11:36:29.083Z,22.50
2018-11-06T11:38:57.887Z,22.50
2018-11-06T11:41:26.788Z,22.50
2018-11-06T11:43:55.540Z,22.50
2018-11-06T11:46:24.344Z,22.40
2018-11-06T11:48:53.111Z,22.40
2018-11-06T11:51:21.844Z,22.30
2018-11-06T11:53:50.580Z,22.20
2018-11-06T11:56:19.320Z,22.10
2018-11-06T11:58:48.101Z,22.00
2018-11-06T12:01:16.793Z,21.90
2018-11-06T12:03:45.529Z,21.80
2018-11-06T12:06:14.259Z,21.80
2018-11-06T12:08:42.992Z,21.70
2018-11-06T12:11:11.729Z,21.60
2018-11-06T12:13:40.475Z,21.60
2018-11-06T12:16:09.192Z,21.50
2018-11-06T12:18:37.941Z,21.50
2018-11-06T12:21:06.696Z,21.50
2018-11-06T12:23:35.424Z,21.50
2018-11-06T12:26:04.180Z,21.50
2018-11-06T12:28:32.928Z,21.50
2018-11-06T12:31:01.664Z,21.40
2018-11-06T12:33:30.426Z,21.40
2018-11-06T12:35:59.156Z,21.40
2018-11-06T12:38:27.896Z,21.40
2018-11-06T12:40:56.640Z,21.40
2018-11-06T12:43:25.435Z,21.30
2018-11-06T12:45:54.102Z,21.40
2018-11-06T12:48:22.844Z,21.40
2018-11-06T12:50:51.585Z,21.40
2018-11-06T12:53:20.323Z,21.40
2018-11-06T12:55:49.052Z,21.30
2018-11-06T12:58:17.805Z,21.30
2018-11-06T13:00:46.548Z,21.30
2018-11-06T13:03:15.359Z,21.40
2018-11-06T13:05:44.020Z,21.30
2018-11-06T13:08:12.770Z,21.30
2018-11-06T13:10:41.506Z,21.30
2018-11-06T13:13:10.248Z,21.30
2018-11-06T13:15:39.022Z,21.40
2018-11-06T13:18:07.713Z,21.30
2018-11-06T13:20:36.452Z,21.20
2018-11-06T13:23:05.188Z,21.20
2018-11-06T13:25:33.934Z,21.10
2018-11-06T13:28:02.657Z,21.10
2018-11-06T13:30:31.429Z,21.10
2018-11-06T13:33:00.126Z,21.10
2018-11-06T13:35:28.856Z,21.00
2018-11-06T13:37:57.583Z,21.00
2018-11-06T13:40:26.320Z,21.00
2018-11-06T13:42:55.179Z,20.90
2018-11-06T13:45:25.115Z,20.90
2018-11-06T13:47:53.716Z,21.00
2018-11-06T13:50:22.584Z,20.90
2018-11-06T13:52:51.313Z,20.90
2018-11-06T13:55:20.067Z,20.90
2018-11-06T13:57:48.800Z,20.90
2018-11-06T14:00:18.764Z,20.90
2018-11-06T14:02:47.516Z,20.90
2018-11-06T14:05:16.419Z,20.90
2018-11-06T14:07:45.180Z,21.00
2018-11-06T14:10:13.960Z,21.10
2018-11-06T14:12:43.408Z,21.10
2018-11-06T14:15:12.141Z,21.20
2018-11-06T14:17:40.880Z,21.20
2018-11-06T14:20:11.608Z,21.20
2018-11-06T14:22:40.432Z,21.20
2018-11-06T14:25:09.200Z,21.20
2018-11-06T14:27:38.019Z,21.20
2018-11-06T14:30:11.576Z,21.20
2018-11-06T14:32:40.361Z,21.20
2018-11-06T14:35:10.488Z,21.20
2018-11-06T14:37:39.588Z,21.00
2018-11-06T14:40:09.241Z,21.00
2018-11-06T14:42:38.554Z,20.90
2018-11-06T14:45:08.776Z,20.80
2018-11-06T14:47:37.541Z,20.80
2018-11-06T14:50:07.232Z,20.80
2018-11-06T14:52:36.422Z,20.80
2018-11-06T14:55:06.212Z,20.80
2018-11-06T14:57:34.960Z,20.70
2018-11-06T15:00:03.865Z,20.70
2018-11-06T15:02:32.597Z,20.70
2018-11-06T15:05:02.348Z,20.70
2018-11-06T15:07:31.084Z,20.70
2018-11-06T15:09:59.838Z,20.70
2018-11-06T15:12:28.572Z,20.70
2018-11-06T15:14:57.313Z,20.70
2018-11-06T15:17:26.108Z,20.60
2018-11-06T15:19:54.942Z,20.70
2018-11-06T15:22:23.681Z,20.60
2018-11-06T15:24:52.416Z,20.60
2018-11-06T15:27:21.156Z,20.60
2018-11-06T15:29:49.896Z,20.60
2018-11-06T15:32:18.689Z,20.60
2018-11-06T15:34:47.368Z,20.50
2018-11-06T15:37:16.104Z,20.50
2018-11-06T15:39:44.885Z,20.50
2018-11-06T15:42:13.673Z,20.50
2018-11-06T15:44:42.348Z,20.50
2018-11-06T15:47:11.089Z,20.50
2018-11-06T15:49:39.820Z,20.50
2018-11-06T15:52:08.560Z,20.50
2018-11-06T15:54:37.377Z,20.50
2018-11-06T15:57:06.036Z,20.50
2018-11-06T15:59:34.948Z,20.50
2018-11-06T16:02:03.685Z,20.50
2018-11-06T16:04:32.424Z,20.50
2018-11-06T16:07:01.179Z,20.50
2018-11-06T16:09:29.903Z,20.50
2018-11-06T16:11:58.648Z,20.40
2018-11-06T16:14:27.467Z,20.40
2018-11-06T16:16:56.217Z,20.50
2018-11-06T16:19:25.041Z,20.50
2018-11-06T16:21:53.785Z,20.50
2018-11-06T16:24:22.515Z,20.50
2018-11-06T16:26:51.272Z,20.50
2018-11-06T16:29:20.000Z,20.50
2018-11-06T16:31:48.744Z,20.50
2018-11-06T16:34:17.472Z,20.50
2018-11-06T16:36:46.212Z,20.60
2018-11-06T16:39:14.944Z,20.70
2018-11-06T16:41:43.812Z,20.70
2018-11-06T16:44:12.420Z,20.80
2018-11-06T16:46:41.165Z,20.80
2018-11-06T16:49:09.896Z,20.80
2018-11-06T16:51:38.637Z,20.90
2018-11-06T16:54:07.393Z,20.90
2018-11-06T16:56:36.164Z,20.80
2018-11-06T16:59:04.904Z,20.80
2018-11-06T17:01:33.640Z,20.70
2018-11-06T17:04:02.397Z,20.70
2018-11-06T17:06:35.119Z,20.70
2018-11-06T17:09:04.868Z,20.70
2018-11-06T17:11:33.604Z,20.60
2018-11-06T17:14:02.332Z,20.70
2018-11-06T17:16:31.076Z,20.60
2018-11-06T17:18:59.813Z,20.60
2018-11-06T17:21:28.768Z,20.60
2018-11-06T17:23:57.540Z,20.60
2018-11-06T17:26:26.289Z,20.60
2018-11-06T17:28:55.029Z,20.60
2018-11-06T17:31:23.764Z,20.60
2018-11-06T17:33:52.504Z,20.60
2018-11-06T17:36:21.245Z,20.60
2018-11-06T17:38:49.997Z,20.60
2018-11-06T17:41:18.823Z,20.60
2018-11-06T17:43:47.564Z,20.60
2018-11-06T17:46:16.303Z,20.60
2018-11-06T17:48:45.045Z,20.60
2018-11-06T17:51:13.775Z,20.50
2018-11-06T17:53:42.671Z,20.60
2018-11-06T17:56:11.408Z,20.50
2018-11-06T17:58:40.144Z,20.50
2018-11-06T18:01:08.920Z,20.50
2018-11-06T18:03:37.628Z,20.50
2018-11-06T18:06:06.356Z,20.50
2018-11-06T18:08:35.108Z,20.50
2018-11-06T18:11:03.972Z,20.50
2018-11-06T18:13:32.712Z,20.50
2018-11-06T18:16:01.507Z,20.50
2018-11-06T18:18:30.235Z,20.50
2018-11-06T18:20:58.972Z,20.50
2018-11-06T18:23:27.707Z,20.50
2018-11-06T18:25:56.491Z,20.50
2018-11-06T18:28:26.005Z,20.50
2018-11-06T18:30:54.748Z,20.50
2018-11-06T18:33:23.480Z,20.50
2018-11-06T18:35:52.212Z,20.50
2018-11-06T18:38:21.023Z,20.50
2018-11-06T18:40:49.693Z,20.50
2018-11-06T18:43:18.425Z,20.50
2018-11-06T18:45:47.165Z,20.50
2018-11-06T18:48:15.893Z,20.50
2018-11-06T18:50:45.412Z,20.50
2018-11-06T18:53:14.162Z,20.50
2018-11-06T18:55:42.919Z,20.50
2018-11-06T18:58:11.745Z,20.50
2018-11-06T19:00:40.357Z,20.50
2018-11-06T19:03:09.096Z,20.50
2018-11-06T19:05:37.836Z,20.50
2018-11-06T19:08:06.594Z,20.50
2018-11-06T19:10:35.336Z,20.50
2018-11-06T19:13:04.113Z,20.50
2018-11-06T19:15:32.852Z,20.50
2018-11-06T19:18:02.291Z,20.50
2018-11-06T19:20:31.020Z,20.50
2018-11-06T19:22:59.763Z,20.50
2018-11-06T19:25:28.491Z,20.50
2018-11-06T19:27:57.232Z,20.50
2018-11-06T19:30:26.038Z,20.50
2018-11-06T19:32:54.696Z,20.40
2018-11-06T19:35:23.426Z,20.40
2018-11-06T19:37:52.180Z,20.50
2018-11-06T19:40:20.970Z,20.50
2018-11-06T19:42:49.679Z,20.40
2018-11-06T19:45:18.404Z,20.50
2018-11-06T19:47:47.157Z,20.40
2018-11-06T19:50:17.372Z,20.50
2018-11-06T19:52:46.134Z,20.40
2018-11-06T19:55:15.916Z,20.50
2018-11-06T19:57:44.641Z,20.40
2018-11-06T20:00:18.920Z,20.40
2018-11-06T20:02:48.854Z,20.40
2018-11-06T20:05:17.659Z,20.40
2018-11-06T20:07:47.324Z,20.40
2018-11-06T20:10:17.348Z,20.40
2018-11-06T20:12:47.163Z,20.40
2018-11-06T20:15:16.469Z,20.40
2018-11-06T20:17:45.506Z,20.40
2018-11-06T20:20:20.765Z,20.50
2018-11-06T20:22:49.596Z,20.50
2018-11-06T20:25:18.352Z,20.40
2018-11-06T20:27:47.101Z,20.50
2018-11-06T20:30:17.797Z,20.50
2018-11-06T20:32:46.540Z,20.50
2018-11-06T20:35:15.584Z,20.50
2018-11-06T20:37:44.339Z,20.40
2018-11-06T20:40:14.880Z,20.50
2018-11-06T20:42:44.297Z,20.50
2018-11-06T20:45:14.216Z,20.50
2018-11-06T20:47:43.319Z,20.40
2018-11-06T20:50:17.484Z,20.40
2018-11-06T20:52:46.366Z,20.40
2018-11-06T20:55:15.873Z,20.40
2018-11-06T20:57:44.564Z,20.40
2018-11-06T21:00:22.201Z,20.40
2018-11-06T21:02:52.020Z,20.40
2018-11-06T21:05:20.756Z,20.50
2018-11-06T21:07:49.596Z,20.50
2018-11-06T21:10:19.525Z,20.50
2018-11-06T21:12:48.282Z,20.40
2018-11-06T21:15:17.012Z,20.50
2018-11-06T21:17:45.877Z,20.50
2018-11-06T21:20:15.176Z,20.50
2018-11-06T21:22:44.065Z,20.50
2018-11-06T21:25:13.177Z,20.50
2018-11-06T21:27:42.260Z,20.50
2018-11-06T21:30:12.605Z,20.50
2018-11-06T21:32:42.599Z,20.50
2018-11-06T21:35:11.393Z,20.40
2018-11-06T21:37:40.293Z,20.40
2018-11-06T21:40:12.557Z,20.40
2018-11-06T21:42:41.958Z,20.40
2018-11-06T21:45:11.667Z,20.40
2018-11-06T21:47:41.264Z,20.40
2018-11-06T21:50:11.092Z,20.40
2018-11-06T21:52:39.980Z,20.40
2018-11-06T21:55:10.200Z,20.40
2018-11-06T21:57:39.189Z,20.40
2018-11-06T22:00:11.538Z,20.40
2018-11-06T22:02:40.244Z,20.40
2018-11-06T22:05:10.789Z,20.40
2018-11-06T22:07:39.668Z,20.40
2018-11-06T22:10:10.104Z,20.50
2018-11-06T22:12:39.208Z,20.40
2018-11-06T22:15:09.213Z,20.40
2018-11-06T22:17:38.408Z,20.40
2018-11-06T22:20:08.442Z,20.40
2018-11-06T22:22:37.204Z,20.40
2018-11-06T22:25:06.373Z,20.40
2018-11-06T22:27:35.355Z,20.40
2018-11-06T22:30:05.329Z,20.40
2018-11-06T22:32:34.060Z,20.30
2018-11-06T22:35:02.796Z,20.30
2018-11-06T22:37:31.585Z,20.30
2018-11-06T22:40:00.276Z,20.30
2018-11-06T22:42:29.053Z,20.30
2018-11-06T22:44:57.812Z,20.30
2018-11-06T22:47:26.743Z,20.30
2018-11-06T22:49:55.513Z,20.30
2018-11-06T22:52:24.253Z,20.30
2018-11-06T22:54:53.036Z,20.30
2018-11-06T22:57:21.732Z,20.30
2018-11-06T22:59:50.463Z,20.30
2018-11-06T23:02:19.204Z,20.30
2018-11-06T23:04:47.948Z,20.30
2018-11-06T23:07:22.044Z,20.30
2018-11-06T23:09:50.771Z,20.30
2018-11-06T23:12:19.532Z,20.30
2018-11-06T23:14:48.470Z,20.30
2018-11-06T23:17:17.173Z,20.30
2018-11-06T23:19:45.908Z,20.30
2018-11-06T23:22:14.661Z,20.30
2018-11-06T23:24:43.441Z,20.30
2018-11-06T23:27:12.128Z,20.30
2018-11-06T23:29:40.867Z,20.30
2018-11-06T23:32:09.592Z,20.30
2018-11-06T23:34:38.344Z,20.30
2018-11-06T23:37:07.080Z,20.30
2018-11-06T23:39:35.816Z,20.30
2018-11-06T23:42:04.860Z,20.30
2018-11-06T23:44:33.609Z,20.30
2018-11-06T23:47:02.336Z,20.30
2018-11-06T23:49:31.073Z,20.30
2018-11-06T23:51:59.799Z,20.30
2018-11-06T23:54:28.536Z,20.30
2018-11-06T23:56:57.281Z,20.30
2018-11-06T23:59:26.020Z,20.30
